Time;durP1;ratioP1;P1;durP2;ratioP2;P2;SDS_P1;SDS_P2;PMS_P1;PMS_P2;Temp;Humidity;BMP_temperature;BMP_pressure;BME280_temperature;BME280_humidity;BME280_pressure;Samples;Min_cycle;Max_cycle;Signal;HPM_P1;HPM_P2
2021/01/13 00:02:41;;;;;;;8.70;6.00;;;;;;;4.39;63.94;97659.22;8502579;27;20199;-72
2021/01/13 00:06:43;;;;;;;9.10;6.37;;;;;;;4.25;64.19;97662.13;8502016;27;20204;-73
2021/01/13 00:10:45;;;;;;;14.87;6.70;;;;;;;4.09;64.80;97659.03;8501586;27;20221;-72
2021/01/13 00:14:46;;;;;;;9.77;6.77;;;;;;;4.02;65.09;97670.34;8499791;27;20220;-72
2021/01/13 00:18:49;;;;;;;10.40;6.50;;;;;;;4.22;63.64;97662.19;8499619;27;20208;-73
2021/01/13 00:22:51;;;;;;;10.80;6.30;;;;;;;4.27;63.67;97662.91;8500133;27;20201;-73
2021/01/13 00:26:59;;;;;;;10.07;6.87;;;;;;;4.27;63.71;97666.31;8501031;27;20197;-73
2021/01/13 00:31:00;;;;;;;10.20;6.57;;;;;;;4.20;64.16;97671.63;8500321;27;20549;-72
2021/01/13 00:35:04;;;;;;;9.33;6.87;;;;;;;4.18;63.96;97681.06;8498551;27;20252;-71
2021/01/13 00:39:06;;;;;;;11.13;7.07;;;;;;;4.22;63.55;97670.69;8496226;27;20252;-72
2021/01/13 00:43:08;;;;;;;9.33;6.60;;;;;;;4.25;63.97;97687.75;8491363;27;20500;-72
2021/01/13 00:47:13;;;;;;;11.53;7.73;;;;;;;4.14;64.13;97692.28;8474212;27;20217;-72
2021/01/13 00:51:16;;;;;;;10.23;6.37;;;;;;;4.32;63.71;97694.38;8497025;27;20250;-72
2021/01/13 00:55:20;;;;;;;11.77;6.60;;;;;;;4.36;63.85;97702.84;8492821;27;20230;-72
2021/01/13 00:59:22;;;;;;;13.27;7.30;;;;;;;4.24;63.84;97701.44;8464628;28;20201;-72
2021/01/13 01:03:23;;;;;;;12.10;7.63;;;;;;;4.37;63.54;97702.81;8464681;28;20202;-71
2021/01/13 01:07:31;;;;;;;10.57;7.40;;;;;;;4.18;63.79;97694.72;8465255;28;20193;-72
2021/01/13 01:11:37;;;;;;;11.20;7.20;;;;;;;4.23;63.55;97699.75;8464372;28;20331;-71
2021/01/13 01:15:38;;;;;;;15.03;7.77;;;;;;;4.11;63.39;97703.41;8464332;28;20636;-72
2021/01/13 01:19:40;;;;;;;11.37;7.30;;;;;;;4.20;63.58;97716.03;8465017;27;20275;-72
2021/01/13 01:23:43;;;;;;;8.43;7.37;;;;;;;4.02;63.50;97711.34;8498851;27;20224;-72
2021/01/13 01:27:47;;;;;;;12.93;7.23;;;;;;;4.06;63.32;97721.47;8498719;27;20238;-72
2021/01/13 01:31:50;;;;;;;13.53;7.37;;;;;;;4.05;63.43;97724.91;8497204;27;20228;-72
2021/01/13 01:35:52;;;;;;;12.97;7.07;;;;;;;3.98;63.52;97725.06;8497259;27;20243;-72
2021/01/13 01:39:54;;;;;;;12.63;8.27;;;;;;;3.86;63.84;97727.03;8498825;27;20555;-72
2021/01/13 01:43:57;;;;;;;14.00;8.00;;;;;;;3.90;63.72;97730.34;8498203;27;20308;-72
2021/01/13 01:48:12;;;;;;;12.00;7.70;;;;;;;3.96;63.30;97730.25;8497421;27;20197;-71
2021/01/13 01:52:16;;;;;;;14.87;8.50;;;;;;;3.89;63.53;97741.50;8498145;28;20216;-72
2021/01/13 01:56:25;;;;;;;12.27;7.67;;;;;;;3.86;63.70;97737.25;8512455;27;20328;-72
2021/01/13 02:00:30;;;;;;;14.30;8.13;;;;;;;3.95;63.11;97748.22;8532356;27;20215;-72
2021/01/13 02:04:34;;;;;;;10.40;7.63;;;;;;;3.76;63.80;97742.63;8531140;27;20185;-72
2021/01/13 02:08:38;;;;;;;10.87;7.87;;;;;;;3.63;64.45;97739.47;8511047;27;20201;-72
2021/01/13 02:12:51;;;;;;;14.33;7.90;;;;;;;3.83;63.48;97757.00;8496478;28;20239;-72
2021/01/13 02:16:54;;;;;;;13.93;7.70;;;;;;;3.89;63.82;97762.00;8498388;28;20186;-72
2021/01/13 02:21:01;;;;;;;12.47;7.03;;;;;;;3.75;63.97;97764.84;8496525;28;20254;-71
2021/01/13 02:25:45;;;;;;;12.57;8.00;;;;;;;3.83;63.93;97762.13;8498213;28;20185;-72
2021/01/13 02:29:51;;;;;;;11.80;7.63;;;;;;;3.87;63.32;97768.88;8497544;28;20587;-72
2021/01/13 02:33:56;;;;;;;15.07;7.97;;;;;;;3.76;63.77;97768.25;8497951;28;20197;-71
2021/01/13 02:38:04;;;;;;;10.20;7.50;;;;;;;3.86;63.66;97764.63;8497792;28;20605;-72
2021/01/13 02:42:07;;;;;;;15.30;8.90;;;;;;;3.82;63.41;97763.00;8497417;28;20193;-72
2021/01/13 02:46:12;;;;;;;19.20;9.43;;;;;;;3.81;63.55;97758.72;8497594;28;20197;-72
2021/01/13 02:50:21;;;;;;;13.27;8.10;;;;;;;3.81;63.38;97763.84;8495976;28;20241;-72
2021/01/13 02:54:31;;;;;;;13.50;8.53;;;;;;;3.76;63.34;97763.13;8497150;28;20181;-72
2021/01/13 02:58:34;;;;;;;16.07;8.60;;;;;;;3.79;63.24;97763.91;8468816;28;20233;-72
2021/01/13 03:02:39;;;;;;;13.70;7.70;;;;;;;3.74;63.49;97767.44;8468487;28;20201;-72
2021/01/13 03:06:46;;;;;;;15.80;8.87;;;;;;;3.74;63.50;97768.28;8469347;28;20208;-72
2021/01/13 03:10:48;;;;;;;15.83;8.33;;;;;;;3.81;62.80;97771.53;8454697;28;20226;-72
2021/01/13 03:14:54;;;;;;;17.57;8.00;;;;;;;3.72;63.08;97777.72;8446134;28;20205;-72
2021/01/13 03:18:59;;;;;;;14.90;7.50;;;;;;;3.62;62.98;97777.06;8468500;28;20201;-72
2021/01/13 03:23:06;;;;;;;12.37;7.90;;;;;;;3.69;62.68;97788.00;8467383;28;20213;-72
2021/01/13 03:27:09;;;;;;;13.27;7.73;;;;;;;3.76;62.74;97789.56;8436065;28;20206;-72
2021/01/13 03:31:14;;;;;;;18.07;7.70;;;;;;;3.81;62.72;97792.91;8434306;28;20307;-73
2021/01/13 03:35:20;;;;;;;11.13;7.00;;;;;;;3.86;62.20;97800.47;8434339;28;20672;-72
2021/01/13 03:39:23;;;;;;;11.60;6.80;;;;;;;3.70;63.07;97800.78;8434184;28;20206;-72
2021/01/13 03:43:25;;;;;;;12.20;7.00;;;;;;;3.82;62.15;97803.97;8435024;28;20195;-72
2021/01/13 03:47:59;;;;;;;13.03;6.83;;;;;;;3.87;62.16;97808.13;8434661;28;20642;-72
2021/01/13 03:52:04;;;;;;;15.47;7.17;;;;;;;3.83;62.62;97810.81;8433699;28;20275;-71
2021/01/13 03:56:06;;;;;;;15.43;6.63;;;;;;;3.88;62.36;97807.28;8442925;28;20241;-72
2021/01/13 04:00:09;;;;;;;12.93;6.83;;;;;;;4.03;61.94;97812.94;8433827;28;20206;-72
2021/01/13 04:04:20;;;;;;;9.63;6.07;;;;;;;3.92;62.14;97810.59;8433002;28;20251;-72
2021/01/13 04:08:24;;;;;;;14.63;8.33;;;;;;;3.98;62.04;97805.38;8432189;28;20197;-73
2021/01/13 04:12:31;;;;;;;12.77;6.67;;;;;;;3.99;61.42;97804.47;8432750;28;20241;-73
2021/01/13 04:16:36;;;;;;;12.97;6.13;;;;;;;3.85;61.65;97802.19;8433337;28;20202;-72
2021/01/13 04:20:39;;;;;;;14.53;6.37;;;;;;;3.88;61.73;97814.09;8434528;28;20637;-73
2021/01/13 04:24:44;;;;;;;13.07;6.83;;;;;;;3.89;61.55;97813.25;8432071;28;20198;-72
2021/01/13 04:28:48;;;;;;;12.90;5.90;;;;;;;3.81;61.64;97815.09;8431399;28;20236;-72
2021/01/13 04:32:50;;;;;;;13.07;6.70;;;;;;;3.85;61.37;97815.00;8431112;28;20222;-72
2021/01/13 04:36:56;;;;;;;11.50;6.17;;;;;;;3.84;61.17;97815.03;8431730;28;20194;-72
2021/01/13 04:41:10;;;;;;;16.77;8.27;;;;;;;3.79;61.19;97819.41;8429793;28;20225;-72
2021/01/13 04:45:13;;;;;;;14.43;6.80;;;;;;;3.86;60.72;97819.25;8430805;28;20203;-72
2021/01/13 04:49:17;;;;;;;11.43;5.53;;;;;;;3.72;60.90;97813.56;8430812;28;20202;-72
2021/01/13 04:53:20;;;;;;;12.10;6.00;;;;;;;3.65;60.91;97823.06;8431502;28;20668;-72
2021/01/13 04:57:57;;;;;;;10.13;5.70;;;;;;;3.72;60.81;97824.66;8458216;28;20233;-72
2021/01/13 05:02:07;;;;;;;10.40;6.07;;;;;;;3.76;60.96;97824.59;8455474;28;20214;-72
2021/01/13 05:06:46;;;;;;;12.07;5.80;;;;;;;3.77;60.75;97841.63;8430816;28;20187;-72
2021/01/13 05:10:51;;;;;;;13.93;5.93;;;;;;;3.67;60.85;97828.16;8431152;28;20234;-72
2021/01/13 05:15:00;;;;;;;14.07;6.33;;;;;;;3.58;60.52;97831.75;8445594;28;20197;-72
2021/01/13 05:19:03;;;;;;;16.93;6.60;;;;;;;3.55;60.53;97829.25;8464535;28;20186;-72
2021/01/13 05:23:05;;;;;;;11.40;6.30;;;;;;;3.52;60.29;97827.59;8464156;28;20221;-72
2021/01/13 05:27:25;;;;;;;14.17;6.63;;;;;;;3.51;60.57;97833.56;8463016;28;20204;-72
2021/01/13 05:31:33;;;;;;;16.73;8.73;;;;;;;3.40;60.53;97830.34;8462927;28;20217;-72
2021/01/13 05:35:40;;;;;;;21.40;11.47;;;;;;;3.40;60.29;97842.31;8464236;28;20282;-72
2021/01/13 05:39:42;;;;;;;15.10;6.80;;;;;;;3.27;60.01;97836.56;8462941;28;20186;-72
2021/01/13 05:43:46;;;;;;;13.73;5.93;;;;;;;3.25;60.27;97838.31;8463314;28;20201;-72
2021/01/13 05:47:53;;;;;;;11.97;5.57;;;;;;;3.16;60.60;97830.78;8462927;28;20206;-72
2021/01/13 05:52:04;;;;;;;13.53;5.57;;;;;;;3.37;59.62;97827.88;8437643;28;20306;-72
2021/01/13 05:56:07;;;;;;;10.17;4.60;;;;;;;3.30;59.32;97827.13;8431003;28;20689;-72
2021/01/13 06:00:15;;;;;;;11.90;5.27;;;;;;;3.25;59.83;97808.44;8430247;28;20221;-70
2021/01/13 06:04:27;;;;;;;13.73;6.03;;;;;;;3.19;59.86;97812.81;8428440;28;20198;-70
2021/01/13 06:08:31;;;;;;;12.57;4.77;;;;;;;3.16;59.66;97808.63;8429562;28;20198;-70
2021/01/13 06:12:35;;;;;;;9.27;4.00;;;;;;;2.97;60.46;97817.44;8429619;28;20237;-70
2021/01/13 06:16:37;;;;;;;15.17;4.97;;;;;;;3.23;59.77;97811.91;8429267;28;20297;-70
2021/01/13 06:20:41;;;;;;;10.63;4.10;;;;;;;2.91;60.28;97821.81;8429812;28;20558;-70
2021/01/13 06:24:43;;;;;;;11.97;3.80;;;;;;;2.98;60.20;97827.66;8428568;28;20210;-70
2021/01/13 06:29:20;;;;;;;14.27;4.53;;;;;;;2.88;59.93;97833.81;8428474;28;20213;-70
2021/01/13 06:33:24;;;;;;;13.13;3.80;;;;;;;3.01;60.35;97834.44;8433865;28;20210;-70
2021/01/13 06:37:35;;;;;;;9.47;3.90;;;;;;;3.07;60.21;97842.03;8437639;28;20206;-70
2021/01/13 06:41:44;;;;;;;8.50;3.33;;;;;;;3.23;59.95;97840.06;8435960;28;20191;-70
2021/01/13 06:45:46;;;;;;;7.23;3.63;;;;;;;3.16;60.14;97843.56;8435632;28;20195;-70
2021/01/13 06:49:48;;;;;;;7.33;3.53;;;;;;;3.20;60.02;97842.66;8439768;28;20198;-73
2021/01/13 06:53:51;;;;;;;8.67;4.70;;;;;;;3.27;59.78;97847.63;8434460;28;20222;-72
2021/01/13 06:57:55;;;;;;;13.80;4.43;;;;;;;3.27;59.68;97849.38;8435948;28;20234;-72
2021/01/13 07:01:58;;;;;;;9.90;4.23;;;;;;;3.30;59.49;97855.28;8435928;28;20652;-71
2021/01/13 07:06:01;;;;;;;11.33;5.03;;;;;;;3.36;59.86;97856.06;8434734;28;20198;-71
2021/01/13 07:10:10;;;;;;;10.73;3.93;;;;;;;3.29;59.99;97866.41;8435901;28;20250;-71
2021/01/13 07:14:12;;;;;;;12.90;6.30;;;;;;;3.29;60.06;97866.41;8435313;28;20559;-71
2021/01/13 07:18:13;;;;;;;13.80;5.97;;;;;;;3.35;60.00;97857.78;8433892;28;20213;-71
2021/01/13 07:22:17;;;;;;;11.20;5.00;;;;;;;3.48;59.92;97864.38;8433379;28;20273;-72
2021/01/13 07:26:20;;;;;;;16.03;6.67;;;;;;;3.42;59.91;97859.34;8435217;28;20548;-71
2021/01/13 07:30:25;;;;;;;16.10;7.37;;;;;;;3.40;60.02;97858.53;8434711;28;20206;-72
2021/01/13 07:34:36;;;;;;;10.73;5.47;;;;;;;3.41;59.70;97869.59;8453503;28;20206;-72
2021/01/13 07:38:43;;;;;;;15.60;6.90;;;;;;;3.50;59.59;97875.44;8467557;28;20247;-71
2021/01/13 07:42:46;;;;;;;12.40;6.20;;;;;;;3.52;59.54;97871.13;8451375;28;20243;-71
2021/01/13 07:47:00;;;;;;;14.87;6.50;;;;;;;3.40;60.39;97873.88;8433278;28;20260;-71
2021/01/13 07:51:06;;;;;;;12.93;6.57;;;;;;;3.57;59.74;97885.56;8434026;28;20278;-70
2021/01/13 07:55:19;;;;;;;14.67;6.87;;;;;;;3.75;59.66;97876.69;8434192;28;20253;-71
2021/01/13 07:59:42;;;;;;;11.90;6.83;;;;;;;3.84;59.25;97881.66;8434122;28;20547;-71
2021/01/13 08:04:41;;;;;;;15.60;7.87;;;;;;;3.87;59.14;97890.13;8431982;28;20681;-70
2021/01/13 08:09:04;;;;;;;16.97;7.07;;;;;;;5.85;76.60;97892.50;8410101;28;20607;-70
2021/01/13 08:13:38;;;;;;;26.30;5.83;;;;;;;9.92;64.94;97881.94;8466905;28;20237;-71
2021/01/13 08:17:47;;;;;;;12.67;5.43;;;;;;;11.02;52.29;97877.03;8467514;28;20186;-72
2021/01/13 08:21:54;;;;;;;10.63;5.77;;;;;;;9.95;44.25;97883.56;8466960;28;20194;-76
2021/01/13 08:25:59;;;;;;;13.83;5.40;;;;;;;9.27;44.11;97877.75;8472059;28;20215;-80
2021/01/13 08:30:02;;;;;;;8.67;5.23;;;;;;;9.58;44.04;97877.38;8478871;28;20717;-75
2021/01/13 08:34:07;;;;;;;13.30;6.17;;;;;;;8.76;45.22;97885.78;8484173;28;20230;-81
2021/01/13 08:38:11;;;;;;;8.83;5.40;;;;;;;7.68;47.82;97888.78;8481074;28;20200;-79
2021/01/13 08:42:21;;;;;;;13.63;5.70;;;;;;;7.58;47.92;97885.66;8446294;28;20563;-78
2021/01/13 08:46:24;;;;;;;11.45;5.97;;;;;;;7.24;48.80;97884.19;8432559;28;20528;-77
2021/01/13 08:50:29;;;;;;;10.90;4.73;;;;;;;6.41;51.21;97902.13;8432371;28;20305;-77
2021/01/13 08:54:31;;;;;;;11.43;5.77;;;;;;;6.16;52.21;97896.84;8433094;28;20212;-77
2021/01/13 08:58:36;;;;;;;12.23;6.93;;;;;;;6.24;51.54;97900.06;8434039;28;20426;-80
2021/01/13 09:03:07;;;;;;;13.05;7.15;;;;;;;6.32;51.05;97906.69;8431575;28;20517;-77
2021/01/13 09:07:13;;;;;;;12.80;4.60;;;;;;;5.73;52.86;97903.13;8431681;28;20248;-76
2021/01/13 09:11:31;;;;;;;13.10;4.80;;;;;;;5.51;53.86;97925.09;8432463;28;20249;-78
2021/01/13 09:15:33;;;;;;;11.30;4.87;;;;;;;5.56;53.82;97921.53;8432152;28;20187;-77
2021/01/13 09:19:38;;;;;;;9.53;4.47;;;;;;;5.93;53.19;97933.44;8432619;28;20209;-79
2021/01/13 09:23:45;;;;;;;11.90;5.20;;;;;;;6.31;52.45;97934.16;8430862;28;20440;-77
2021/01/13 09:27:48;;;;;;;11.50;4.77;;;;;;;5.87;53.84;97937.00;8439525;27;20232;-77
2021/01/13 09:32:09;;;;;;;9.90;5.00;;;;;;;5.78;53.16;97928.69;8454661;27;20240;-76
2021/01/13 09:36:11;;;;;;;12.27;6.07;;;;;;;5.86;53.59;97931.91;8457130;28;20675;-78
2021/01/13 09:40:16;;;;;;;10.90;5.57;;;;;;;5.96;53.02;97922.25;8447338;28;20230;-77
2021/01/13 09:44:21;;;;;;;9.33;5.47;;;;;;;5.90;53.11;97920.66;8432620;28;20570;-80
2021/01/13 09:48:25;;;;;;;10.27;4.20;;;;;;;5.76;53.33;97927.88;8432167;28;20205;-77
2021/01/13 09:52:36;;;;;;;13.63;8.23;;;;;;;5.59;53.40;97921.44;8470666;27;20224;-78
2021/01/13 09:56:39;;;;;;;14.60;5.80;;;;;;;5.65;53.53;97918.75;8475413;28;20234;-78
2021/01/13 10:00:42;;;;;;;14.03;8.30;;;;;;;5.77;53.60;97914.13;8466514;28;20205;-78
2021/01/13 10:04:50;;;;;;;27.53;18.03;;;;;;;5.97;52.64;97919.63;8465745;28;20202;-77
2021/01/13 10:08:52;;;;;;;15.27;6.33;;;;;;;6.33;52.37;97909.25;8469996;28;20186;-79
2021/01/13 10:12:59;;;;;;;12.40;6.80;;;;;;;6.10;52.14;97896.19;8454772;28;20230;-74
2021/01/13 10:17:06;;;;;;;10.83;5.27;;;;;;;6.07;51.76;97897.09;8471365;28;20274;-77
2021/01/13 10:21:09;;;;;;;11.52;5.25;;;;;;;6.34;51.59;97899.78;8459373;28;20457;-76
2021/01/13 10:25:23;;;;;;;9.30;4.63;;;;;;;6.14;51.81;97896.03;8429909;28;20198;-76
2021/01/13 10:29:26;;;;;;;10.63;4.90;;;;;;;6.02;52.34;97898.97;8437042;28;20560;-74
2021/01/13 10:33:47;;;;;;;7.73;4.33;;;;;;;5.78;52.71;97898.69;8435338;28;20222;-64
2021/01/13 10:37:51;;;;;;;8.80;4.57;;;;;;;5.85;52.78;97899.38;8456664;28;20289;-66
2021/01/13 10:41:54;;;;;;;9.80;4.70;;;;;;;5.66;53.00;97896.44;8469100;28;20255;-65
2021/01/13 10:45:59;;;;;;;10.37;4.47;;;;;;;5.92;52.73;97882.94;8469777;28;20309;-65
2021/01/13 10:50:02;;;;;;;9.23;4.53;;;;;;;6.08;52.42;97883.38;8467148;28;20194;-66
2021/01/13 10:54:09;;;;;;;7.37;4.30;;;;;;;6.28;51.92;97871.69;8468991;28;20217;-65
2021/01/13 10:58:11;;;;;;;8.23;4.20;;;;;;;6.64;52.06;97862.91;8469576;28;20229;-66
2021/01/13 11:02:15;;;;;;;15.00;4.53;;;;;;;6.56;51.60;97856.28;8467629;28;20198;-66
2021/01/13 11:06:23;;;;;;;11.77;4.30;;;;;;;6.50;51.01;97848.75;8469587;28;20371;-65
2021/01/13 11:10:25;;;;;;;8.33;3.70;;;;;;;6.22;51.51;97847.81;8466674;28;20668;-65
2021/01/13 11:14:32;;;;;;;9.87;4.03;;;;;;;6.15;52.06;97840.31;8467812;28;20240;-65
2021/01/13 11:18:35;;;;;;;11.37;3.97;;;;;;;6.16;51.29;97840.28;8468996;28;20543;-66
2021/01/13 11:22:45;;;;;;;12.70;4.13;;;;;;;5.98;51.87;97835.69;8467416;28;20212;-65
2021/01/13 11:26:48;;;;;;;9.20;4.00;;;;;;;5.90;52.00;97832.44;8465947;28;20293;-66
2021/01/13 11:30:50;;;;;;;7.83;4.23;;;;;;;5.77;51.98;97826.78;8467146;28;20213;-66
2021/01/13 11:34:54;;;;;;;10.37;4.23;;;;;;;5.96;51.33;97822.88;8466601;28;20244;-66
2021/01/13 11:39:03;;;;;;;8.57;4.17;;;;;;;5.75;52.12;97821.69;8468436;28;20214;-66
2021/01/13 11:43:33;;;;;;;9.07;4.30;;;;;;;5.76;51.91;97810.50;8477472;27;20189;-74
2021/01/13 11:47:41;;;;;;;10.00;5.00;;;;;;;6.27;51.12;97816.84;8502132;27;20204;-75
2021/01/13 11:51:45;;;;;;;9.17;4.83;;;;;;;6.44;50.46;97806.88;8501776;27;20216;-76
2021/01/13 11:55:47;;;;;;;10.77;4.63;;;;;;;6.31;50.72;97791.88;8502810;27;20233;-76
2021/01/13 11:59:50;;;;;;;12.10;4.63;;;;;;;6.45;50.17;97782.84;8500815;27;20529;-75
2021/01/13 12:03:59;;;;;;;7.77;3.63;;;;;;;6.62;49.71;97786.63;8499926;27;20201;-75
2021/01/13 12:08:04;;;;;;;7.43;3.80;;;;;;;6.45;50.44;97785.44;8501539;27;20302;-75
2021/01/13 12:12:07;;;;;;;10.97;4.73;;;;;;;5.94;51.94;97788.63;8463531;27;20589;-76
2021/01/13 12:16:14;;;;;;;9.47;4.47;;;;;;;5.81;52.33;97793.25;8467165;28;20194;-75
2021/01/13 12:20:31;;;;;;;9.90;4.33;;;;;;;5.78;52.83;97784.78;8466725;28;20225;-75
2021/01/13 12:24:39;;;;;;;9.40;4.27;;;;;;;5.82;52.91;97773.53;8464323;28;20198;-74
2021/01/13 12:28:41;;;;;;;8.90;4.57;;;;;;;5.68;53.52;97766.22;8464239;28;20201;-75
2021/01/13 12:32:48;;;;;;;9.40;4.50;;;;;;;5.91;52.99;97767.28;8464658;28;20222;-74
2021/01/13 12:36:51;;;;;;;10.70;5.27;;;;;;;6.05;52.75;97757.47;8465307;28;20190;-75
2021/01/13 12:41:03;;;;;;;10.53;5.20;;;;;;;6.31;52.39;97745.56;8464897;28;20209;-75
2021/01/13 12:45:07;;;;;;;11.20;4.50;;;;;;;5.90;53.29;97765.59;8464550;28;20193;-75
2021/01/13 12:49:09;;;;;;;8.00;4.10;;;;;;;5.71;53.57;97755.00;8464432;28;20205;-74
2021/01/13 12:53:10;;;;;;;8.10;4.53;;;;;;;5.92;53.39;97751.84;8464498;28;20221;-75
2021/01/13 12:57:13;;;;;;;11.87;4.40;;;;;;;6.01;53.39;97761.03;8485907;27;20586;-77
2021/01/13 13:01:15;;;;;;;9.80;4.50;;;;;;;5.94;53.37;97744.91;8495995;27;20228;-76
2021/01/13 13:05:17;;;;;;;7.17;4.30;;;;;;;5.74;54.18;97753.19;8497276;27;20204;-76
2021/01/13 13:09:20;;;;;;;8.33;4.20;;;;;;;5.67;54.32;97746.53;8497419;27;20201;-74
2021/01/13 13:13:23;;;;;;;13.90;4.53;;;;;;;5.46;54.27;97741.13;8498136;27;20324;-74
2021/01/13 13:17:25;;;;;;;9.27;4.17;;;;;;;5.39;55.04;97734.47;8497164;27;20201;-75
2021/01/13 13:21:27;;;;;;;7.10;3.80;;;;;;;5.51;54.83;97729.88;8495010;27;20217;-75
2021/01/13 13:25:29;;;;;;;8.27;3.80;;;;;;;5.51;55.63;97732.44;8497052;27;20561;-75
2021/01/13 13:29:31;;;;;;;8.33;4.53;;;;;;;5.45;55.83;97731.72;8509051;27;20196;-75
2021/01/13 13:33:34;;;;;;;10.27;4.17;;;;;;;5.39;55.57;97731.91;8532375;27;20239;-79
2021/01/13 13:37:37;;;;;;;8.50;3.93;;;;;;;5.29;55.83;97725.31;8529579;27;20204;-78
2021/01/13 13:41:39;;;;;;;11.03;4.60;;;;;;;5.34;55.96;97714.94;8499390;27;20204;-78
2021/01/13 13:45:42;;;;;;;11.80;4.33;;;;;;;5.49;55.52;97714.50;8500557;27;20620;-77
2021/01/13 13:49:43;;;;;;;9.33;4.07;;;;;;;5.55;55.28;97718.63;8498627;27;20201;-76
2021/01/13 13:53:45;;;;;;;8.87;4.00;;;;;;;5.28;55.42;97695.41;8498895;27;20348;-79
2021/01/13 13:57:47;;;;;;;13.57;6.87;;;;;;;5.17;55.77;97695.69;8503222;27;20734;-77
2021/01/13 14:01:50;;;;;;;11.43;5.43;;;;;;;5.23;55.43;97695.50;8534940;27;20510;-78
2021/01/13 14:05:53;;;;;;;19.13;10.33;;;;;;;5.09;55.53;97695.06;8534949;27;20196;-77
2021/01/13 14:09:55;;;;;;;11.60;5.93;;;;;;;4.77;56.48;97689.03;8536626;27;20509;-79
2021/01/13 14:13:58;;;;;;;10.20;4.60;;;;;;;5.02;55.70;97694.34;8533536;27;20233;-76
2021/01/13 14:18:03;;;;;;;8.37;4.60;;;;;;;5.06;54.88;97690.00;8531700;27;20204;-78
2021/01/13 14:22:05;;;;;;;7.50;4.30;;;;;;;4.79;55.63;97686.44;8533229;27;20200;-77
2021/01/13 14:26:07;;;;;;;9.23;4.40;;;;;;;4.85;55.46;97676.84;8531357;27;20204;-77
2021/01/13 14:30:10;;;;;;;9.73;4.80;;;;;;;4.88;55.64;97676.75;8532700;27;20496;-77
2021/01/13 14:34:12;;;;;;;10.00;5.47;;;;;;;5.00;55.36;97685.03;8533581;27;20220;-78
2021/01/13 14:38:15;;;;;;;10.23;5.30;;;;;;;4.89;55.43;97683.59;8538430;27;20197;-80
2021/01/13 14:42:17;;;;;;;7.83;4.50;;;;;;;4.87;55.13;97679.38;8537412;27;20196;-78
2021/01/13 14:46:20;;;;;;;7.50;4.00;;;;;;;4.78;55.28;97674.47;8518329;27;20201;-79
2021/01/13 14:50:23;;;;;;;8.17;4.17;;;;;;;4.84;55.25;97669.19;8499997;28;20644;-78
2021/01/13 14:54:26;;;;;;;11.57;5.00;;;;;;;4.66;55.55;97673.94;8506012;27;20658;-78
2021/01/13 14:58:28;;;;;;;7.83;4.03;;;;;;;4.65;55.63;97679.09;8508388;27;20233;-78
2021/01/13 15:02:29;;;;;;;7.63;4.40;;;;;;;4.60;55.73;97671.50;8506738;27;20209;-79
2021/01/13 15:06:32;;;;;;;12.03;4.70;;;;;;;4.63;55.25;97670.59;8504220;27;20204;-78
2021/01/13 15:10:34;;;;;;;9.30;4.60;;;;;;;4.56;55.83;97669.88;8502342;27;20228;-78
2021/01/13 15:14:35;;;;;;;10.07;4.20;;;;;;;4.52;56.00;97654.63;8503644;27;20225;-77
2021/01/13 15:18:37;;;;;;;11.07;4.20;;;;;;;4.54;56.26;97642.59;8503764;27;20242;-77
2021/01/13 15:22:40;;;;;;;9.10;4.13;;;;;;;4.48;55.58;97636.75;8501653;27;20633;-77
2021/01/13 15:26:42;;;;;;;8.00;3.80;;;;;;;4.38;56.23;97631.88;8506532;27;20193;-79
2021/01/13 15:30:44;;;;;;;12.40;6.67;;;;;;;4.49;55.89;97640.13;8509770;27;20189;-79
2021/01/13 15:34:46;;;;;;;10.17;4.60;;;;;;;4.37;55.95;97628.47;8514790;27;20229;-79
2021/01/13 15:38:49;;;;;;;12.10;6.13;;;;;;;4.42;56.18;97631.78;8502103;27;20221;-75
2021/01/13 15:42:51;;;;;;;8.63;4.40;;;;;;;4.35;56.41;97630.22;8501145;27;20205;-79
2021/01/13 15:46:53;;;;;;;6.93;3.97;;;;;;;4.26;56.70;97626.16;8502795;27;20515;-77
2021/01/13 15:50:56;;;;;;;11.10;5.80;;;;;;;4.22;57.48;97622.00;8506500;27;20212;-81
2021/01/13 15:54:59;;;;;;;19.67;10.40;;;;;;;4.45;56.74;97613.72;8502463;27;20232;-77
2021/01/13 15:59:03;;;;;;;12.57;5.30;;;;;;;4.41;56.75;97611.28;8501030;27;20193;-78
2021/01/13 16:03:05;;;;;;;8.07;4.83;;;;;;;4.27;56.86;97611.66;8504092;27;20276;-79
2021/01/13 16:07:08;;;;;;;9.13;4.80;;;;;;;4.37;56.98;97607.13;8501973;27;20201;-78
2021/01/13 16:11:11;;;;;;;7.83;3.87;;;;;;;4.28;57.60;97601.38;8504293;27;20228;-79
2021/01/13 16:15:15;;;;;;;7.03;3.10;;;;;;;4.42;57.02;97595.88;8502618;27;20221;-77
2021/01/13 16:19:17;;;;;;;7.07;3.27;;;;;;;4.23;57.61;97600.63;8500926;27;20204;-77
2021/01/13 16:23:22;;;;;;;10.13;3.43;;;;;;;4.19;57.88;97586.22;8499932;27;20220;-75
2021/01/13 16:27:28;;;;;;;6.13;3.20;;;;;;;4.11;57.63;97572.72;8499204;27;20636;-76
2021/01/13 16:31:33;;;;;;;8.43;3.53;;;;;;;4.06;58.47;97587.38;8498369;27;20220;-75
2021/01/13 16:35:35;;;;;;;8.40;3.27;;;;;;;4.15;58.28;97589.72;8499184;27;20219;-75
2021/01/13 16:39:37;;;;;;;9.53;3.50;;;;;;;4.18;58.09;97586.25;8498618;27;20204;-76
2021/01/13 16:43:40;;;;;;;7.73;3.13;;;;;;;4.26;57.78;97574.91;8499990;27;20201;-75
2021/01/13 16:47:42;;;;;;;8.07;3.63;;;;;;;4.07;58.71;97574.53;8499613;27;20284;-74
2021/01/13 16:51:49;;;;;;;9.57;3.43;;;;;;;4.18;57.87;97570.84;8498618;27;20236;-77
2021/01/13 16:55:51;;;;;;;9.23;3.60;;;;;;;4.27;57.79;97563.78;8502408;27;20555;-79
2021/01/13 17:00:07;;;;;;;9.37;3.30;;;;;;;4.26;57.46;97563.81;8503435;27;20628;-77
2021/01/13 17:04:09;;;;;;;8.93;3.53;;;;;;;4.13;57.76;97568.41;8500769;27;20536;-78
2021/01/13 17:08:11;;;;;;;10.60;3.57;;;;;;;4.34;57.43;97548.22;8499216;27;20197;-75
2021/01/13 17:12:14;;;;;;;7.57;3.07;;;;;;;4.33;57.28;97557.66;8498141;27;20220;-76
2021/01/13 17:16:17;;;;;;;7.93;3.67;;;;;;;4.38;56.93;97549.81;8498334;27;20634;-76
2021/01/13 17:20:20;;;;;;;10.47;4.97;;;;;;;4.31;56.92;97549.16;8498309;27;20197;-77
2021/01/13 17:24:22;;;;;;;11.93;6.23;;;;;;;4.21;57.07;97540.88;8498603;27;20281;-75
2021/01/13 17:28:24;;;;;;;10.97;6.30;;;;;;;4.23;57.29;97533.97;8496993;27;20197;-74
2021/01/13 17:32:27;;;;;;;12.30;5.70;;;;;;;4.38;56.38;97530.19;8497160;27;20221;-78
2021/01/13 17:36:29;;;;;;;12.53;4.20;;;;;;;4.33;56.72;97536.31;8507216;27;20197;-78
2021/01/13 17:40:31;;;;;;;11.00;4.10;;;;;;;4.41;56.56;97522.38;8501705;27;20205;-78
2021/01/13 17:44:33;;;;;;;7.60;3.57;;;;;;;4.31;56.65;97510.72;8501156;27;20220;-76
2021/01/13 17:48:36;;;;;;;8.20;4.00;;;;;;;4.37;56.51;97510.53;8498086;27;20207;-76
2021/01/13 17:52:41;;;;;;;5.13;3.40;;;;;;;4.39;56.50;97502.81;8496800;27;20224;-76
2021/01/13 17:56:43;;;;;;;7.87;4.03;;;;;;;4.41;57.12;97499.31;8497670;27;20322;-76
2021/01/13 18:00:45;;;;;;;8.70;4.30;;;;;;;4.45;56.65;97511.16;8497524;28;20201;-76
2021/01/13 18:04:54;;;;;;;8.77;3.70;;;;;;;4.20;57.15;97503.28;8496986;28;20211;-76
2021/01/13 18:08:58;;;;;;;12.33;5.73;;;;;;;4.21;57.57;97507.56;8497964;28;20193;-76
2021/01/13 18:13:00;;;;;;;15.60;6.67;;;;;;;4.19;57.69;97504.19;8497734;28;20229;-76
2021/01/13 18:17:03;;;;;;;8.90;4.50;;;;;;;4.26;57.35;97503.13;8496676;28;20201;-76
2021/01/13 18:21:07;;;;;;;11.13;4.53;;;;;;;4.09;57.28;97497.59;8497241;28;20288;-76
2021/01/13 18:25:10;;;;;;;11.33;4.20;;;;;;;4.22;57.19;97500.69;8496725;28;20205;-76
2021/01/13 18:29:13;;;;;;;8.30;4.07;;;;;;;4.25;57.82;97486.06;8500031;27;20201;-75
2021/01/13 18:33:14;;;;;;;10.97;4.40;;;;;;;4.23;57.45;97484.44;8503254;27;20225;-77
2021/01/13 18:37:18;;;;;;;7.77;3.77;;;;;;;4.01;57.45;97476.47;8503643;27;20245;-76
2021/01/13 18:41:21;;;;;;;9.57;4.13;;;;;;;4.07;57.32;97472.03;8504244;27;20208;-76
2021/01/13 18:45:23;;;;;;;10.23;4.10;;;;;;;4.03;57.52;97469.56;8511809;27;20200;-77
2021/01/13 18:49:24;;;;;;;9.27;3.80;;;;;;;4.21;57.15;97460.59;8512133;27;20203;-77
2021/01/13 18:53:30;;;;;;;9.30;4.03;;;;;;;4.23;57.04;97458.81;8507195;27;20221;-78
2021/01/13 18:57:33;;;;;;;9.70;3.93;;;;;;;4.07;57.27;97464.34;8505753;27;20236;-75
2021/01/13 19:01:35;;;;;;;6.87;3.87;;;;;;;4.01;58.16;97451.69;8508983;27;20201;-77
2021/01/13 19:05:37;;;;;;;8.97;4.60;;;;;;;4.10;57.83;97445.47;8508382;27;20205;-78
2021/01/13 19:09:40;;;;;;;11.63;4.20;;;;;;;4.07;58.22;97441.28;8505901;27;20240;-77
2021/01/13 19:13:42;;;;;;;7.00;4.33;;;;;;;4.10;58.13;97427.53;8505395;27;20232;-76
2021/01/13 19:17:44;;;;;;;8.30;4.27;;;;;;;4.11;58.10;97431.78;8505668;27;20568;-77
2021/01/13 19:21:46;;;;;;;7.50;3.83;;;;;;;4.14;58.21;97426.56;8504711;27;20273;-77